Estació municipal de Seva (Osona, P.N. del Montseny)

Consulta les dades en temps real de l'estació municipal de Seva





Hora UTC 08:35
Temperatura 15.3 ºC
Sòl 15 cm 22.2 ºC
Humitat 79.0 %
Pressió 1014.4 hPa
Pluja 0.0 mm
Velocitat vent 3.6 km/h
Direcció vent N
Radiació solar 643.1 W/m²

Webcam

Dades diàries 2026-05-10



Hora UTC (hivern +1h; estiu +2h)
Temperatura (ºC) Humitat (%) Pressió (hPa) Velocitat vent (km/h) Precipitació (mm) Radiació solar (W/m²)
Hora UTC Aire Sòl 15 cm Humitat Pressió Vel. Dir. Vel. Max Dir. Intent. màx 5 min. Rad. Sol.
00:05 10.6 9.6 98.8 1015.1 1.2 ENE 1.2 NE 0.0 0.0
00:10 10.4 9.2 98.8 1015.0 1.7 ESE 2.5 ESE 0.0 0.1
00:15 10.2 8.9 98.8 1014.9 1.9 E 2.8 E 0.0 0.1
00:20 10.0 8.6 98.8 1014.8 0.1 ESE 1.4 ESE 0.0 0.0
00:25 9.8 8.3 98.8 1014.8 0.3 SW 1.4 SW 0.0 0.1
00:30 9.7 8.0 98.9 1014.7 0.0 NNE 0.0 WSW 0.0 0.1
00:35 9.5 7.9 98.9 1014.7 0.9 SE 2.1 SE 0.0 0.0
00:40 9.4 7.9 99.0 1014.6 2.4 SE 3.2 SE 0.0 0.1
00:45 9.4 8.1 99.2 1014.4 2.6 SE 3.2 SE 0.0 0.1
00:50 9.4 8.3 99.3 1014.4 2.3 SE 3.2 SE 0.0 0.1
00:55 9.5 8.5 99.4 1014.4 2.2 SE 3.2 SE 0.0 0.1
01:00 9.6 8.7 99.4 1014.4 1.9 SE 3.9 ESE 0.0 0.0
01:05 9.7 8.8 99.4 1014.3 3.3 SE 4.6 SE 0.0 0.1
01:10 9.8 8.9 99.4 1014.3 3.0 SE 6.0 SE 0.0 0.0
01:15 9.9 8.9 99.4 1014.2 4.7 SE 8.1 SSE 0.0 0.0
01:20 9.8 8.8 99.4 1014.1 5.6 SE 8.8 SE 0.0 0.1
01:25 9.8 8.7 99.3 1014.1 4.6 SE 7.8 ESE 0.0 0.1
01:30 9.7 8.5 99.3 1014.1 3.4 SSE 6.7 SE 0.0 0.0
01:35 9.8 8.4 99.4 1014.1 3.5 S 6.0 SSE 0.0 0.0
01:40 9.6 8.2 99.2 1014.1 4.0 SSW 6.4 S 0.0 0.1
01:45 9.5 8.1 99.3 1014.1 3.8 S 6.0 SSW 0.0 0.1
01:50 9.4 7.8 99.2 1014.2 2.5 S 4.9 S 0.0 0.0
01:55 9.2 7.5 99.2 1014.2 1.3 SSW 6.4 SSW 0.0 0.1
02:00 9.1 7.4 99.4 1014.3 2.2 NNW 4.9 NNW 0.0 0.1
02:05 9.0 7.5 99.3 1014.3 3.3 NNW 4.9 NNW 0.0 0.1
02:10 9.0 7.4 99.4 1014.3 2.0 SE 4.9 S 0.0 0.1
02:15 8.8 7.3 99.3 1014.3 3.1 SSE 4.9 SSE 0.0 0.1
02:20 8.8 7.2 99.5 1014.3 4.1 S 6.7 S 0.0 0.1
02:25 8.9 7.2 99.6 1014.3 3.0 S 4.9 S 0.0 0.1
02:30 8.9 7.2 99.6 1014.3 3.3 S 5.3 S 0.0 0.1
02:35 8.8 7.1 99.5 1014.3 2.2 S 5.6 SSE 0.0 0.1
02:40 8.8 7.0 99.6 1014.3 2.7 SSE 3.9 SSW 0.0 0.1
02:45 8.8 7.1 99.6 1014.3 1.3 SE 3.5 SSE 0.0 0.1
02:50 8.6 7.0 99.4 1014.3 2.0 SE 3.5 E 0.0 0.1
02:55 8.5 6.8 99.5 1014.2 1.6 SSE 2.8 S 0.0 0.1
03:00 8.5 6.8 99.6 1014.2 2.9 SSE 4.2 SE 0.0 0.1
03:05 8.4 6.8 99.6 1014.1 3.6 SE 4.6 SE 0.0 0.1
03:10 8.5 6.9 99.7 1014.0 3.3 SE 4.6 SE 0.0 0.1
03:15 8.5 6.9 99.7 1014.0 3.3 SSE 5.3 SSE 0.0 0.1
03:20 8.6 7.0 99.8 1014.0 3.6 SSE 5.3 SSE 0.0 0.1
03:25 8.6 7.0 99.7 1013.9 3.1 SSE 4.4 SSE 0.0 0.0
03:30 8.6 6.8 99.7 1014.0 2.9 SSE 4.9 S 0.0 0.1
03:35 8.4 6.7 99.5 1013.9 2.3 ESE 3.2 ESE 0.0 0.1
03:40 8.0 6.5 99.4 1013.8 3.2 ESE 4.6 E 0.0 0.1
03:45 8.0 6.4 99.6 1013.9 0.6 SSE 2.8 SSE 0.0 0.1
03:50 7.9 6.3 99.6 1013.8 2.8 ESE 3.9 ESE 0.0 0.1
03:55 7.9 6.2 99.7 1013.7 3.5 E 4.9 E 0.0 0.1
04:00 7.9 6.2 99.7 1013.7 2.4 E 3.9 E 0.0 0.1
04:05 7.8 6.2 99.7 1013.7 3.2 ENE 5.3 E 0.0 0.1
04:10 7.7 6.2 99.6 1013.6 4.4 ESE 5.6 E 0.0 0.1
04:15 7.6 6.2 99.7 1013.6 2.5 ESE 3.2 ESE 0.0 0.1
04:20 7.6 6.1 99.8 1013.8 2.0 SSW 3.2 SW 0.0 0.2
04:25 7.9 6.0 100.0 1013.8 1.8 ESE 2.8 E 0.0 0.5
04:30 7.8 6.0 99.9 1013.8 1.9 ESE 3.2 ESE 0.0 1.0
04:35 8.0 6.0 100.0 1013.9 2.5 S 4.6 S 0.0 2.1
04:40 8.2 6.1 100.0 1013.9 3.7 SSE 6.4 SSE 0.0 3.8
04:45 8.2 6.3 100.0 1013.8 2.3 SSE 4.9 SSE 0.0 6.0
04:50 8.1 6.3 99.8 1013.9 2.2 SSE 3.2 SSE 0.0 8.0
04:55 7.8 6.1 99.6 1013.9 2.7 SSE 4.6 SSW 0.0 10.3
05:00 7.6 6.1 99.7 1013.9 2.6 E 4.9 E 0.0 12.9
05:05 7.6 6.1 99.9 1013.8 4.3 E 5.6 E 0.0 15.0
05:10 7.8 6.2 100.0 1013.8 3.8 E 4.9 E 0.0 17.0
05:15 7.9 6.3 100.0 1013.9 3.4 E 3.9 ENE 0.0 19.0
05:20 8.0 6.5 99.9 1013.8 3.8 E 5.3 E 0.0 21.0
05:25 8.1 6.6 100.0 1013.8 4.0 E 5.3 E 0.0 23.0
05:30 8.3 6.8 100.0 1013.7 4.1 E 5.3 E 0.0 49.0
05:35 8.4 6.9 100.0 1013.7 2.6 E 3.9 E 0.0 137.5
05:40 8.8 7.1 100.0 1013.7 0.5 E 2.1 E 0.0 154.7
05:45 9.4 7.3 99.8 1013.7 0.4 ESE 2.1 E 0.0 168.4
05:50 9.8 8.2 99.3 1013.8 0.4 E 1.4 ESE 0.0 181.5
05:55 10.2 9.4 98.8 1013.9 0.0 NNE 0.0 NE 0.0 194.0
06:00 10.4 10.0 98.2 1013.8 2.0 E 3.2 E 0.0 207.1
06:05 10.9 11.1 98.2 1013.8 1.7 ENE 3.2 ENE 0.0 220.4
06:10 11.2 12.1 97.7 1013.8 2.1 ENE 3.5 ENE 0.0 233.7
06:15 11.8 13.1 97.4 1013.8 1.2 N 3.5 N 0.0 245.3
06:20 12.1 13.8 96.7 1013.8 1.2 N 2.1 N 0.0 243.2
06:25 12.5 14.6 96.4 1013.9 0.8 NNE 2.8 NE 0.0 272.9
06:30 12.6 15.3 95.5 1013.9 2.3 N 4.6 N 0.0 285.9
06:35 12.5 15.3 95.1 1014.0 2.8 NNW 4.9 N 0.0 299.8
06:40 12.4 15.6 94.8 1014.0 3.6 NW 4.9 NW 0.0 313.9
06:45 12.4 15.7 94.3 1014.1 3.8 N 5.6 N 0.0 328.2
06:50 12.6 16.1 93.6 1014.0 2.4 NNW 4.2 N 0.0 343.4
06:55 12.6 16.6 92.6 1014.1 2.1 NW 3.2 NNW 0.0 358.0
07:00 12.8 17.2 92.5 1014.1 3.4 WNW 4.9 WNW 0.0 372.7
07:05 12.9 17.6 92.0 1014.2 2.0 WNW 4.2 NW 0.0 387.2
07:10 13.0 17.7 90.8 1014.1 0.8 WNW 2.5 WNW 0.0 401.7
07:15 13.3 18.6 88.8 1014.1 1.9 WNW 4.2 W 0.0 416.8
07:20 13.6 19.0 87.1 1014.2 2.1 WSW 5.6 WSW 0.0 431.7
07:25 13.9 19.1 85.9 1014.2 1.2 W 3.5 W 0.0 447.6
07:30 14.4 19.7 85.3 1014.2 1.1 SSW 4.2 S 0.0 462.3
07:35 14.8 20.1 81.6 1014.2 2.3 SW 6.4 SW 0.0 477.0
07:40 15.3 20.1 77.9 1014.2 2.2 S 4.9 SSW 0.0 492.2
07:45 15.8 20.5 76.2 1014.3 2.1 SW 7.1 SW 0.0 506.0
07:50 15.3 20.8 73.9 1014.3 5.5 WSW 8.1 WSW 0.0 519.7
07:55 15.1 21.1 74.0 1014.3 4.5 W 6.7 WNW 0.0 533.1
08:00 15.2 21.2 76.4 1014.3 5.0 W 8.5 WNW 0.0 546.1
08:05 15.1 21.5 80.7 1014.4 5.2 WNW 7.8 WNW 0.0 560.4
08:10 14.6 21.9 83.0 1014.4 5.6 WNW 8.5 W 0.0 572.5
08:15 14.7 22.3 82.8 1014.4 5.3 NW 8.8 NW 0.0 587.6
08:20 14.9 22.5 82.0 1014.3 3.5 NW 7.1 NW 0.0 604.2
08:25 15.1 22.8 81.6 1014.3 5.1 NW 7.8 WNW 0.0 613.9
08:30 15.1 22.7 79.2 1014.4 3.8 NW 9.2 N 0.0 625.0
08:35 15.3 22.2 79.0 1014.4 3.6 N 7.1 NW 0.0 643.1
Màxima 15.8 22.8 100.0 1015.1 5.6 WNW 9.2 N 0.0 643.1
Mínima 7.6 6.0 73.9 1013.6
Total 0.0